METAR / TAF

Die METAR- und TAF-Liste ist aus technischen Gründen (Verfügbarkeit, Update-Zyklen) nicht für ein Meteo-Briefing gedacht. Benutzen Sie stattdessen skybriefing der Skyguide  oder das TAMSI (MeteoSchweiz-eigene Meteo Selfbriefing-Plattform für Firmen aus der Aviatik; Anfragen über das

Kontaktformular

METAR Schweiz

METAR     LSZH 181920Z 01003KT CAVOK 25/10 Q1015 NOSIG=
METAR     LSZH 181950Z VRB02KT CAVOK 21/11 Q1016 NOSIG=
METAR     LSGG 181920Z 35004KT 310V030 9999 FEW080 26/13 Q1015
               NOSIG=
METAR     LSGG 181950Z VRB03KT 9999 FEW080 25/14 Q1015 NOSIG=
METAR     LFSB 181930Z 34005KT CAVOK 24/14 Q1015 NOSIG=
METAR     LSZB 181920Z VRB02KT CAVOK 24/11 Q1015 NOSIG=
METAR     LSZB 181950Z VRB02KT CAVOK 22/11 Q1016 NOSIG=
METAR     LSZA 181920Z AUTO VRB02KT CAVOK 25/14 Q1013=
METAR     LSZA 181950Z VRB03KT CAVOK 24/14 Q1014 NOSIG=
METAR     LSZG 181920Z AUTO VRB02KT CAVOK 23/12 Q1015=
METAR     LSZG 181950Z AUTO VRB03KT CAVOK 23/12 Q1016=
METAR     LSZR 181920Z AUTO 20004KT CAVOK 22/07 Q1015=
METAR     LSZR 181950Z AUTO 19005KT CAVOK 22/06 Q1015=
METAR     LSGS 181920Z 23007KT 9999 FEW120 27/10 Q1014=
METAR     LSGS 181950Z 22006KT 170V260 9999 FEW120 27/11 Q1014=
METAR     LSGC 181920Z AUTO 01004KT 320V040 CAVOK 19/11 Q1019=
METAR     LSGC 181950Z AUTO 02005KT CAVOK 19/12 Q1019=
METAR     LSZC 181920Z AUTO 29005KT CAVOK 23/13 Q1016=
METAR     LSZC 181950Z AUTO 28006KT 240V310 CAVOK 23/13 Q1016=
METAR     LSZL 181920Z NIL=
METAR     LSZL 181950Z AUTO 00000KT 9999NDV RA NCD 23/17 Q1013 RMK=
METAR     LSZS 181920Z AUTO 04005KT CAVOK 12/02 Q1022=
METAR     LSZS 181950Z AUTO VRB01KT CAVOK 11/02 Q1022=
METAR     LSMA 181920Z NIL=
METAR     LSMA 181950Z AUTO VRB02KT 2300NDV NCD 21/15 Q1016 RMK=
METAR RRA LSMD 181920Z AUTO 00000KT 9999NDV NCD 24/10 Q1015 RMK=
METAR     LSMD 181950Z AUTO 07003KT 030V110 9999NDV NCD 24/10 Q1016
               RMK=
METAR RRA LSME 181920Z AUTO 02003KT 310V100 9999NDV NCD 25/14 Q1015
               RMK=
METAR     LSME 181950Z AUTO 00000KT 2300NDV NCD 22/14 Q1016 RMK=
METAR     LSMM 181920Z NIL=
METAR     LSMM 181950Z AUTO 09007KT 060V120 9999NDV FEW081 21/14
               Q1016 RMK=
METAR     LSMP 181920Z NIL=
METAR     LSMP 181950Z AUTO 00000KT 9999NDV -SHRA NCD 22/14 Q1015
               RMK=
METAR     LSMS 181920Z 23007KT 9999 FEW120 27/10 Q1014 RMK BLU+=
METAR     LSMS 181950Z 22006KT 170V260 9999 FEW120 27/11 Q1014 RMK
               BLU+=
Aktualisiert am Mittwoch, 18. Juli 2018, 22:01 Uhr

TAF Schweiz

TAF     LSZH 181725Z 1818/1924 VRB03KT CAVOK TX30/1915Z TN14/1904Z
             BECMG 1907/1910 05007KT BECMG 1909/1912 9999 FEW060
             BECMG 1917/1919 VRB03KT CAVOK=
TAF     LSGG 181725Z 1818/1924 VRB03KT 9999 FEW070 TX31/1915Z
             TN16/1904Z BECMG 1818/1821 CAVOK BECMG 1908/1910
             05007KT FEW050 BECMG 1918/1921 VRB03KT CAVOK=
TAF     LFSB 181700Z 1818/1918 36005KT CAVOK TEMPO 1900/1909
             VRB03KT=
TAF     LSGS 181425Z 1815/1824 25015KT 9999 FEW100 BECMG 1817/1819
             VRB03KT CAVOK=
TAF     LSZA 181425Z 1815/1824 20006KT 9999 FEW100 BECMG 1818/1821
             CAVOK=
TAF     LSZB 181425Z 1815/1824 31006KT CAVOK=
TAF     LSZG 181425Z 1815/1824 06006KT 9999 FEW050 BECMG 1816/1819
             CAVOK=
TAF     LSZL 181725Z 1818/1903 28005KT CAVOK=
TAF     LSZR 181425Z 1815/1824 27005KT CAVOK=
TAF     LSGC 181425Z 1815/1824 VRB03KT 9999 SCT040 BECMG 1817/1820
             CAVOK=
TAF     LSZC 181425Z 1815/1824 VRB03KT 9999 FEW060 BECMG 1816/1819
             CAVOK=
TAF     LSZS 181425Z 1815/1824 33007KT 9999 FEW080 TX22/1815Z BECMG
             1817/1819 CAVOK=
TAF     LSMA 181625Z 1817/1923 05005KT 9999 FEW060 BECMG 1817/1819
             CAVOK BECMG 1822/1901 9999 SCT080 PROB30 TEMPO
             1912/1916 9999 SHRA FEW060TCU=
TAF     LSMD 181625Z 1817/1923 VRB03KT CAVOK TEMPO 1822/1923 9999
             SCT100 PROB30 TEMPO 1911/1917 05010KT=
TAF     LSME 181625Z 1817/1923 VRB03KT CAVOK BECMG 1822/1901 9999
             SCT080 PROB40 TEMPO 1912/1918 05010KT=
TAF     LSMM 181625Z 1817/1923 04006KT 9999 FEW070 BECMG 1817/1819
             CAVOK TEMPO 1900/1908 9999 SCT080 BECMG 1908/1911
             26006KT 9999 FEW070=
TAF     LSMP 181625Z 1817/1923 VRB03KT CAVOK BECMG 1910/1912 9999
             FEW050=
Aktualisiert am Mittwoch, 18. Juli 2018, 21:03 Uhr